Kearny, New Jersey
Current Conditions -  °F | °C
As of 6:51 PM on Tuesday 25 Nov 2014 (Local Time) from KEWR Reporting Station
Broken Clouds Broken Clouds  
Wind Chill: 50°   Ceiling: 25000
Heat Index: 50°   Visibility: 10mi
Dew Point: 31°   Wind: 9mph
Humidity: 48%   Direction: 230°SW
Pressure: 30.07"   Gusts: NA
Location:  40.76°N, 74.15°W
Report Text: KEWR 252351Z 23008KT 10SM FEW060 SCT150 BKN250 10/M01 A3007 RMK AO2 SLP182 10122 20089 T01001006 53020 $
Loading
Personal Weather Stations






























Interactive Weather Map New forecast layout! Learn more

10-Day Weather Forecast

Advertisements
Track Severe Weather on mobile